sensor_id;sensor_type;location;lat;lon;timestamp;P1;durP1;ratioP1;P2;durP2;ratioP2
6823;SDS011;58633;49.470;11.004;2023-05-20T00:00:25;4.18;;;3.00;;
6823;SDS011;58633;49.470;11.004;2023-05-20T00:02:51;4.35;;;3.45;;
6823;SDS011;58633;49.470;11.004;2023-05-20T00:05:17;4.55;;;3.42;;
6823;SDS011;58633;49.470;11.004;2023-05-20T00:07:42;4.10;;;3.10;;
6823;SDS011;58633;49.470;11.004;2023-05-20T00:10:08;3.47;;;3.17;;
6823;SDS011;58633;49.470;11.004;2023-05-20T00:12:35;3.70;;;3.40;;
6823;SDS011;58633;49.470;11.004;2023-05-20T00:15:02;30.98;;;21.55;;
6823;SDS011;58633;49.470;11.004;2023-05-20T00:17:27;18.80;;;13.65;;
6823;SDS011;58633;49.470;11.004;2023-05-20T00:19:53;7.22;;;5.32;;
6823;SDS011;58633;49.470;11.004;2023-05-20T00:22:19;5.93;;;3.80;;
6823;SDS011;58633;49.470;11.004;2023-05-20T00:24:44;3.83;;;3.50;;
6823;SDS011;58633;49.470;11.004;2023-05-20T00:27:10;4.00;;;3.65;;
6823;SDS011;58633;49.470;11.004;2023-05-20T00:29:35;3.97;;;3.47;;
6823;SDS011;58633;49.470;11.004;2023-05-20T00:32:01;4.03;;;3.63;;
6823;SDS011;58633;49.470;11.004;2023-05-20T00:34:26;3.95;;;3.55;;
6823;SDS011;58633;49.470;11.004;2023-05-20T00:36:52;7.13;;;3.60;;
6823;SDS011;58633;49.470;11.004;2023-05-20T00:39:17;6.20;;;3.30;;
6823;SDS011;58633;49.470;11.004;2023-05-20T00:41:43;4.35;;;3.20;;
6823;SDS011;58633;49.470;11.004;2023-05-20T00:44:09;5.88;;;3.30;;
6823;SDS011;58633;49.470;11.004;2023-05-20T00:46:34;4.63;;;3.53;;
6823;SDS011;58633;49.470;11.004;2023-05-20T00:49:00;4.47;;;4.07;;
6823;SDS011;58633;49.470;11.004;2023-05-20T00:51:26;5.45;;;3.90;;
6823;SDS011;58633;49.470;11.004;2023-05-20T00:53:51;3.97;;;3.60;;
6823;SDS011;58633;49.470;11.004;2023-05-20T00:56:17;4.25;;;3.50;;
6823;SDS011;58633;49.470;11.004;2023-05-20T00:58:44;4.45;;;3.50;;
6823;SDS011;58633;49.470;11.004;2023-05-20T01:01:09;5.38;;;3.70;;
6823;SDS011;58633;49.470;11.004;2023-05-20T01:03:35;4.53;;;3.70;;
6823;SDS011;58633;49.470;11.004;2023-05-20T01:06:02;4.13;;;3.72;;
6823;SDS011;58633;49.470;11.004;2023-05-20T01:08:27;3.97;;;3.58;;
6823;SDS011;58633;49.470;11.004;2023-05-20T01:10:56;4.60;;;3.58;;
6823;SDS011;58633;49.470;11.004;2023-05-20T01:13:30;4.10;;;3.55;;
6823;SDS011;58633;49.470;11.004;2023-05-20T01:16:00;5.93;;;3.78;;
6823;SDS011;58633;49.470;11.004;2023-05-20T01:18:28;4.10;;;3.70;;
6823;SDS011;58633;49.470;11.004;2023-05-20T01:20:55;3.95;;;3.65;;
6823;SDS011;58633;49.470;11.004;2023-05-20T01:23:29;4.13;;;3.72;;
6823;SDS011;58633;49.470;11.004;2023-05-20T01:26:05;4.35;;;3.95;;
6823;SDS011;58633;49.470;11.004;2023-05-20T01:28:31;4.50;;;4.10;;
6823;SDS011;58633;49.470;11.004;2023-05-20T01:31:02;4.85;;;3.85;;
6823;SDS011;58633;49.470;11.004;2023-05-20T01:33:30;4.82;;;3.97;;
6823;SDS011;58633;49.470;11.004;2023-05-20T01:35:59;5.20;;;3.88;;
6823;SDS011;58633;49.470;11.004;2023-05-20T01:38:25;4.57;;;3.65;;
6823;SDS011;58633;49.470;11.004;2023-05-20T01:40:52;4.30;;;3.90;;
6823;SDS011;58633;49.470;11.004;2023-05-20T01:43:19;4.18;;;3.78;;
6823;SDS011;58633;49.470;11.004;2023-05-20T01:45:45;4.13;;;3.83;;
6823;SDS011;58633;49.470;11.004;2023-05-20T01:48:11;4.60;;;4.03;;
6823;SDS011;58633;49.470;11.004;2023-05-20T01:50:37;4.07;;;3.67;;
6823;SDS011;58633;49.470;11.004;2023-05-20T01:53:03;4.22;;;3.92;;
6823;SDS011;58633;49.470;11.004;2023-05-20T01:55:30;5.80;;;3.90;;
6823;SDS011;58633;49.470;11.004;2023-05-20T01:57:55;4.72;;;4.32;;
6823;SDS011;58633;49.470;11.004;2023-05-20T02:00:21;4.30;;;3.90;;
6823;SDS011;58633;49.470;11.004;2023-05-20T02:02:46;4.43;;;3.78;;
6823;SDS011;58633;49.470;11.004;2023-05-20T02:05:12;4.35;;;3.97;;
6823;SDS011;58633;49.470;11.004;2023-05-20T02:07:37;4.47;;;4.07;;
6823;SDS011;58633;49.470;11.004;2023-05-20T02:10:03;4.32;;;3.63;;
6823;SDS011;58633;49.470;11.004;2023-05-20T02:12:29;4.28;;;3.80;;
6823;SDS011;58633;49.470;11.004;2023-05-20T02:14:55;6.45;;;4.20;;
6823;SDS011;58633;49.470;11.004;2023-05-20T02:17:20;4.13;;;3.72;;
6823;SDS011;58633;49.470;11.004;2023-05-20T02:19:46;6.32;;;4.40;;
6823;SDS011;58633;49.470;11.004;2023-05-20T02:22:12;5.50;;;4.03;;
6823;SDS011;58633;49.470;11.004;2023-05-20T02:24:38;4.53;;;4.13;;
6823;SDS011;58633;49.470;11.004;2023-05-20T02:27:03;5.10;;;4.57;;
6823;SDS011;58633;49.470;11.004;2023-05-20T02:29:30;5.75;;;4.57;;
6823;SDS011;58633;49.470;11.004;2023-05-20T02:31:56;4.97;;;4.15;;
6823;SDS011;58633;49.470;11.004;2023-05-20T02:34:21;4.78;;;4.35;;
6823;SDS011;58633;49.470;11.004;2023-05-20T02:36:47;4.93;;;4.35;;
6823;SDS011;58633;49.470;11.004;2023-05-20T02:39:12;5.43;;;4.53;;
6823;SDS011;58633;49.470;11.004;2023-05-20T02:41:38;4.72;;;4.32;;
6823;SDS011;58633;49.470;11.004;2023-05-20T02:44:04;4.50;;;4.10;;
6823;SDS011;58633;49.470;11.004;2023-05-20T02:46:29;5.10;;;4.40;;
6823;SDS011;58633;49.470;11.004;2023-05-20T02:48:55;6.70;;;4.32;;
6823;SDS011;58633;49.470;11.004;2023-05-20T02:51:20;5.00;;;4.50;;
6823;SDS011;58633;49.470;11.004;2023-05-20T02:53:47;5.47;;;4.60;;
6823;SDS011;58633;49.470;11.004;2023-05-20T02:56:13;5.32;;;4.45;;
6823;SDS011;58633;49.470;11.004;2023-05-20T02:58:38;4.68;;;4.28;;
6823;SDS011;58633;49.470;11.004;2023-05-20T03:01:04;5.53;;;5.03;;
6823;SDS011;58633;49.470;11.004;2023-05-20T03:03:30;4.80;;;4.40;;
6823;SDS011;58633;49.470;11.004;2023-05-20T03:05:57;5.07;;;4.55;;
6823;SDS011;58633;49.470;11.004;2023-05-20T03:08:23;5.45;;;4.68;;
6823;SDS011;58633;49.470;11.004;2023-05-20T03:10:48;4.68;;;4.28;;
6823;SDS011;58633;49.470;11.004;2023-05-20T03:13:14;4.82;;;4.30;;
6823;SDS011;58633;49.470;11.004;2023-05-20T03:15:40;4.70;;;4.30;;
6823;SDS011;58633;49.470;11.004;2023-05-20T03:18:06;6.85;;;4.68;;
6823;SDS011;58633;49.470;11.004;2023-05-20T03:20:32;5.05;;;4.55;;
6823;SDS011;58633;49.470;11.004;2023-05-20T03:23:02;5.55;;;4.50;;
6823;SDS011;58633;49.470;11.004;2023-05-20T03:25:28;4.85;;;4.45;;
6823;SDS011;58633;49.470;11.004;2023-05-20T03:27:53;5.05;;;4.55;;
6823;SDS011;58633;49.470;11.004;2023-05-20T03:30:19;4.93;;;4.43;;
6823;SDS011;58633;49.470;11.004;2023-05-20T03:32:45;5.05;;;4.55;;
6823;SDS011;58633;49.470;11.004;2023-05-20T03:35:11;4.60;;;4.20;;
6823;SDS011;58633;49.470;11.004;2023-05-20T03:37:36;5.55;;;4.85;;
6823;SDS011;58633;49.470;11.004;2023-05-20T03:40:02;5.72;;;4.95;;
6823;SDS011;58633;49.470;11.004;2023-05-20T03:42:34;5.18;;;4.65;;
6823;SDS011;58633;49.470;11.004;2023-05-20T03:44:59;4.97;;;4.45;;
6823;SDS011;58633;49.470;11.004;2023-05-20T03:47:26;5.40;;;4.90;;
6823;SDS011;58633;49.470;11.004;2023-05-20T03:49:51;5.65;;;5.15;;
6823;SDS011;58633;49.470;11.004;2023-05-20T03:52:17;5.40;;;4.90;;
6823;SDS011;58633;49.470;11.004;2023-05-20T03:54:43;5.07;;;4.68;;
6823;SDS011;58633;49.470;11.004;2023-05-20T03:57:08;7.00;;;5.50;;
6823;SDS011;58633;49.470;11.004;2023-05-20T03:59:37;5.18;;;4.60;;
6823;SDS011;58633;49.470;11.004;2023-05-20T04:02:03;6.13;;;5.53;;
6823;SDS011;58633;49.470;11.004;2023-05-20T04:04:29;6.25;;;5.35;;
6823;SDS011;58633;49.470;11.004;2023-05-20T04:06:55;7.28;;;5.22;;
6823;SDS011;58633;49.470;11.004;2023-05-20T04:09:21;5.10;;;4.55;;
6823;SDS011;58633;49.470;11.004;2023-05-20T04:11:47;6.15;;;5.55;;
6823;SDS011;58633;49.470;11.004;2023-05-20T04:14:13;5.22;;;4.72;;
6823;SDS011;58633;49.470;11.004;2023-05-20T04:16:39;5.90;;;5.10;;
6823;SDS011;58633;49.470;11.004;2023-05-20T04:19:04;6.43;;;5.25;;
6823;SDS011;58633;49.470;11.004;2023-05-20T04:21:31;5.78;;;5.07;;
6823;SDS011;58633;49.470;11.004;2023-05-20T04:23:56;8.10;;;5.50;;
6823;SDS011;58633;49.470;11.004;2023-05-20T04:26:22;8.45;;;6.25;;
6823;SDS011;58633;49.470;11.004;2023-05-20T04:28:48;6.78;;;6.03;;
6823;SDS011;58633;49.470;11.004;2023-05-20T04:31:13;5.72;;;5.13;;
6823;SDS011;58633;49.470;11.004;2023-05-20T04:33:39;6.03;;;5.43;;
6823;SDS011;58633;49.470;11.004;2023-05-20T04:36:09;5.53;;;5.03;;
6823;SDS011;58633;49.470;11.004;2023-05-20T04:38:36;6.32;;;5.30;;
6823;SDS011;58633;49.470;11.004;2023-05-20T04:41:02;6.03;;;5.40;;
6823;SDS011;58633;49.470;11.004;2023-05-20T04:43:29;5.80;;;5.20;;
6823;SDS011;58633;49.470;11.004;2023-05-20T04:45:54;6.90;;;5.63;;
6823;SDS011;58633;49.470;11.004;2023-05-20T04:48:21;5.78;;;5.28;;
6823;SDS011;58633;49.470;11.004;2023-05-20T04:50:47;6.40;;;5.70;;
6823;SDS011;58633;49.470;11.004;2023-05-20T04:53:14;6.30;;;5.68;;
6823;SDS011;58633;49.470;11.004;2023-05-20T04:55:40;6.55;;;5.88;;
6823;SDS011;58633;49.470;11.004;2023-05-20T04:58:07;6.72;;;5.80;;
6823;SDS011;58633;49.470;11.004;2023-05-20T05:00:38;6.63;;;5.68;;
6823;SDS011;58633;49.470;11.004;2023-05-20T05:03:04;6.35;;;5.75;;
6823;SDS011;58633;49.470;11.004;2023-05-20T05:05:31;7.85;;;5.55;;
6823;SDS011;58633;49.470;11.004;2023-05-20T05:07:56;6.43;;;5.80;;
6823;SDS011;58633;49.470;11.004;2023-05-20T05:10:22;6.28;;;5.68;;
6823;SDS011;58633;49.470;11.004;2023-05-20T05:12:49;7.20;;;6.45;;
6823;SDS011;58633;49.470;11.004;2023-05-20T05:15:14;7.05;;;6.35;;
6823;SDS011;58633;49.470;11.004;2023-05-20T05:17:40;9.15;;;6.03;;
6823;SDS011;58633;49.470;11.004;2023-05-20T05:20:06;8.00;;;5.72;;
6823;SDS011;58633;49.470;11.004;2023-05-20T05:22:32;7.05;;;6.22;;
6823;SDS011;58633;49.470;11.004;2023-05-20T05:25:00;9.82;;;6.28;;
6823;SDS011;58633;49.470;11.004;2023-05-20T05:27:27;7.10;;;5.88;;
6823;SDS011;58633;49.470;11.004;2023-05-20T05:29:52;6.55;;;5.88;;
6823;SDS011;58633;49.470;11.004;2023-05-20T05:32:18;8.50;;;6.40;;
6823;SDS011;58633;49.470;11.004;2023-05-20T05:34:44;7.25;;;6.15;;
6823;SDS011;58633;49.470;11.004;2023-05-20T05:37:09;8.43;;;6.10;;
6823;SDS011;58633;49.470;11.004;2023-05-20T05:39:35;6.63;;;5.88;;
6823;SDS011;58633;49.470;11.004;2023-05-20T05:42:01;8.90;;;6.15;;
6823;SDS011;58633;49.470;11.004;2023-05-20T05:44:28;8.43;;;6.55;;
6823;SDS011;58633;49.470;11.004;2023-05-20T05:46:53;8.52;;;6.40;;
6823;SDS011;58633;49.470;11.004;2023-05-20T05:49:19;7.43;;;6.43;;
6823;SDS011;58633;49.470;11.004;2023-05-20T05:51:44;10.48;;;6.22;;
6823;SDS011;58633;49.470;11.004;2023-05-20T05:54:10;7.53;;;6.15;;
6823;SDS011;58633;49.470;11.004;2023-05-20T05:56:36;8.23;;;6.80;;
6823;SDS011;58633;49.470;11.004;2023-05-20T05:59:01;10.15;;;6.75;;
6823;SDS011;58633;49.470;11.004;2023-05-20T06:01:28;6.88;;;6.15;;
6823;SDS011;58633;49.470;11.004;2023-05-20T06:03:53;7.53;;;6.75;;
6823;SDS011;58633;49.470;11.004;2023-05-20T06:06:19;7.38;;;6.63;;
6823;SDS011;58633;49.470;11.004;2023-05-20T06:08:45;11.20;;;6.95;;
6823;SDS011;58633;49.470;11.004;2023-05-20T06:11:10;7.05;;;5.85;;
6823;SDS011;58633;49.470;11.004;2023-05-20T06:13:36;8.30;;;6.38;;
6823;SDS011;58633;49.470;11.004;2023-05-20T06:16:02;9.13;;;6.43;;
6823;SDS011;58633;49.470;11.004;2023-05-20T06:18:27;9.55;;;6.22;;
6823;SDS011;58633;49.470;11.004;2023-05-20T06:20:56;12.23;;;6.45;;
6823;SDS011;58633;49.470;11.004;2023-05-20T06:23:22;13.18;;;6.30;;
6823;SDS011;58633;49.470;11.004;2023-05-20T06:25:48;12.55;;;6.43;;
6823;SDS011;58633;49.470;11.004;2023-05-20T06:28:14;9.98;;;6.30;;
6823;SDS011;58633;49.470;11.004;2023-05-20T06:30:40;6.28;;;5.65;;
6823;SDS011;58633;49.470;11.004;2023-05-20T06:33:06;8.23;;;6.35;;
6823;SDS011;58633;49.470;11.004;2023-05-20T06:35:31;8.18;;;6.65;;
6823;SDS011;58633;49.470;11.004;2023-05-20T06:38:00;8.05;;;6.55;;
6823;SDS011;58633;49.470;11.004;2023-05-20T06:40:26;7.78;;;6.93;;
6823;SDS011;58633;49.470;11.004;2023-05-20T06:42:52;7.95;;;6.35;;
6823;SDS011;58633;49.470;11.004;2023-05-20T06:45:18;9.18;;;7.68;;
6823;SDS011;58633;49.470;11.004;2023-05-20T06:47:44;7.95;;;7.13;;
6823;SDS011;58633;49.470;11.004;2023-05-20T06:50:10;8.30;;;6.80;;
6823;SDS011;58633;49.470;11.004;2023-05-20T06:52:36;9.32;;;6.60;;
6823;SDS011;58633;49.470;11.004;2023-05-20T06:55:02;6.93;;;5.93;;
6823;SDS011;58633;49.470;11.004;2023-05-20T06:57:28;7.45;;;6.57;;
6823;SDS011;58633;49.470;11.004;2023-05-20T06:59:54;7.25;;;6.35;;
6823;SDS011;58633;49.470;11.004;2023-05-20T07:02:20;9.55;;;5.93;;
6823;SDS011;58633;49.470;11.004;2023-05-20T07:04:46;7.50;;;6.07;;
6823;SDS011;58633;49.470;11.004;2023-05-20T07:07:12;8.38;;;6.72;;
6823;SDS011;58633;49.470;11.004;2023-05-20T07:09:37;7.85;;;7.00;;
6823;SDS011;58633;49.470;11.004;2023-05-20T07:12:03;12.85;;;7.43;;
6823;SDS011;58633;49.470;11.004;2023-05-20T07:14:28;8.70;;;6.75;;
6823;SDS011;58633;49.470;11.004;2023-05-20T07:16:54;8.50;;;6.47;;
6823;SDS011;58633;49.470;11.004;2023-05-20T07:19:19;8.25;;;6.82;;
6823;SDS011;58633;49.470;11.004;2023-05-20T07:21:45;7.32;;;6.20;;
6823;SDS011;58633;49.470;11.004;2023-05-20T07:24:10;9.65;;;7.03;;
6823;SDS011;58633;49.470;11.004;2023-05-20T07:26:36;10.18;;;6.82;;
6823;SDS011;58633;49.470;11.004;2023-05-20T07:29:05;7.20;;;6.38;;
6823;SDS011;58633;49.470;11.004;2023-05-20T07:31:30;9.57;;;6.82;;
6823;SDS011;58633;49.470;11.004;2023-05-20T07:33:56;7.20;;;6.50;;
6823;SDS011;58633;49.470;11.004;2023-05-20T07:36:22;8.20;;;6.60;;
6823;SDS011;58633;49.470;11.004;2023-05-20T07:38:47;8.85;;;6.88;;
6823;SDS011;58633;49.470;11.004;2023-05-20T07:41:13;8.88;;;7.53;;
6823;SDS011;58633;49.470;11.004;2023-05-20T07:43:39;7.93;;;6.93;;
6823;SDS011;58633;49.470;11.004;2023-05-20T07:46:04;7.05;;;6.05;;
6823;SDS011;58633;49.470;11.004;2023-05-20T07:48:30;7.85;;;5.85;;
6823;SDS011;58633;49.470;11.004;2023-05-20T07:50:55;6.97;;;6.28;;
6823;SDS011;58633;49.470;11.004;2023-05-20T07:53:23;8.07;;;6.82;;
6823;SDS011;58633;49.470;11.004;2023-05-20T07:55:49;9.20;;;6.25;;
6823;SDS011;58633;49.470;11.004;2023-05-20T07:58:14;6.50;;;5.80;;
6823;SDS011;58633;49.470;11.004;2023-05-20T08:00:40;13.93;;;6.60;;
6823;SDS011;58633;49.470;11.004;2023-05-20T08:03:06;8.25;;;6.25;;
6823;SDS011;58633;49.470;11.004;2023-05-20T08:05:32;10.80;;;6.57;;
6823;SDS011;58633;49.470;11.004;2023-05-20T08:07:57;11.93;;;6.28;;
6823;SDS011;58633;49.470;11.004;2023-05-20T08:10:23;17.17;;;7.03;;
6823;SDS011;58633;49.470;11.004;2023-05-20T08:12:48;10.68;;;6.35;;
6823;SDS011;58633;49.470;11.004;2023-05-20T08:15:14;7.97;;;7.18;;
6823;SDS011;58633;49.470;11.004;2023-05-20T08:17:40;10.60;;;6.43;;
6823;SDS011;58633;49.470;11.004;2023-05-20T08:20:06;10.00;;;6.00;;
6823;SDS011;58633;49.470;11.004;2023-05-20T08:22:32;9.65;;;6.13;;
6823;SDS011;58633;49.470;11.004;2023-05-20T08:24:59;6.70;;;5.65;;
6823;SDS011;58633;49.470;11.004;2023-05-20T08:27:25;9.52;;;5.68;;
6823;SDS011;58633;49.470;11.004;2023-05-20T08:29:50;15.20;;;6.80;;
6823;SDS011;58633;49.470;11.004;2023-05-20T08:32:16;20.63;;;6.72;;
6823;SDS011;58633;49.470;11.004;2023-05-20T08:34:42;13.15;;;6.07;;
6823;SDS011;58633;49.470;11.004;2023-05-20T08:37:07;8.23;;;6.43;;
6823;SDS011;58633;49.470;11.004;2023-05-20T08:39:33;9.15;;;6.13;;
6823;SDS011;58633;49.470;11.004;2023-05-20T08:41:58;7.85;;;6.30;;
6823;SDS011;58633;49.470;11.004;2023-05-20T08:44:24;7.78;;;5.90;;
6823;SDS011;58633;49.470;11.004;2023-05-20T08:46:51;6.28;;;5.65;;
6823;SDS011;58633;49.470;11.004;2023-05-20T08:49:18;7.60;;;6.28;;
6823;SDS011;58633;49.470;11.004;2023-05-20T08:51:44;6.97;;;5.82;;
6823;SDS011;58633;49.470;11.004;2023-05-20T08:54:11;7.57;;;5.88;;
6823;SDS011;58633;49.470;11.004;2023-05-20T08:56:38;10.05;;;6.22;;
6823;SDS011;58633;49.470;11.004;2023-05-20T08:59:05;7.78;;;5.88;;
6823;SDS011;58633;49.470;11.004;2023-05-20T09:01:32;12.80;;;5.88;;
6823;SDS011;58633;49.470;11.004;2023-05-20T09:04:08;9.30;;;6.70;;
6823;SDS011;58633;49.470;11.004;2023-05-20T09:06:46;6.88;;;5.97;;
6823;SDS011;58633;49.470;11.004;2023-05-20T09:09:12;7.50;;;5.80;;
6823;SDS011;58633;49.470;11.004;2023-05-20T09:11:38;7.30;;;6.00;;
6823;SDS011;58633;49.470;11.004;2023-05-20T09:14:05;6.30;;;5.70;;
6823;SDS011;58633;49.470;11.004;2023-05-20T09:16:31;6.70;;;6.03;;
6823;SDS011;58633;49.470;11.004;2023-05-20T09:18:57;6.45;;;5.85;;
6823;SDS011;58633;49.470;11.004;2023-05-20T09:21:26;6.50;;;5.90;;
6823;SDS011;58633;49.470;11.004;2023-05-20T09:23:52;7.07;;;5.80;;
6823;SDS011;58633;49.470;11.004;2023-05-20T09:26:21;6.20;;;5.60;;
6823;SDS011;58633;49.470;11.004;2023-05-20T09:28:48;7.15;;;5.47;;
6823;SDS011;58633;49.470;11.004;2023-05-20T09:31:15;6.85;;;6.15;;
6823;SDS011;58633;49.470;11.004;2023-05-20T09:33:41;6.70;;;6.00;;
6823;SDS011;58633;49.470;11.004;2023-05-20T09:36:07;6.68;;;6.00;;
6823;SDS011;58633;49.470;11.004;2023-05-20T09:38:33;6.70;;;6.10;;
6823;SDS011;58633;49.470;11.004;2023-05-20T09:41:07;6.90;;;6.03;;
6823;SDS011;58633;49.470;11.004;2023-05-20T09:43:35;8.18;;;6.20;;
6823;SDS011;58633;49.470;11.004;2023-05-20T09:46:01;7.07;;;5.55;;
6823;SDS011;58633;49.470;11.004;2023-05-20T09:48:28;6.57;;;5.88;;
6823;SDS011;58633;49.470;11.004;2023-05-20T09:50:55;6.40;;;5.80;;
6823;SDS011;58633;49.470;11.004;2023-05-20T09:53:21;6.03;;;5.50;;
6823;SDS011;58633;49.470;11.004;2023-05-20T09:55:51;7.50;;;6.05;;
6823;SDS011;58633;49.470;11.004;2023-05-20T09:58:16;7.60;;;6.20;;
6823;SDS011;58633;49.470;11.004;2023-05-20T10:00:44;8.38;;;6.97;;
6823;SDS011;58633;49.470;11.004;2023-05-20T10:03:10;7.82;;;6.13;;
6823;SDS011;58633;49.470;11.004;2023-05-20T10:05:37;7.53;;;6.28;;
6823;SDS011;58633;49.470;11.004;2023-05-20T10:08:17;7.18;;;5.90;;
6823;SDS011;58633;49.470;11.004;2023-05-20T10:19:28;6.00;;;5.40;;
6823;SDS011;58633;49.470;11.004;2023-05-20T10:22:03;7.55;;;6.25;;
6823;SDS011;58633;49.470;11.004;2023-05-20T10:27:03;7.85;;;7.03;;
6823;SDS011;58633;49.470;11.004;2023-05-20T10:29:42;6.68;;;5.80;;
6823;SDS011;58633;49.470;11.004;2023-05-20T10:32:27;6.97;;;6.28;;
6823;SDS011;58633;49.470;11.004;2023-05-20T10:35:01;6.93;;;6.22;;
6823;SDS011;58633;49.470;11.004;2023-05-20T10:37:32;8.18;;;6.13;;
6823;SDS011;58633;49.470;11.004;2023-05-20T10:40:09;6.47;;;5.88;;
6823;SDS011;58633;49.470;11.004;2023-05-20T10:42:39;6.60;;;5.95;;
6823;SDS011;58633;49.470;11.004;2023-05-20T10:45:05;8.07;;;6.43;;
6823;SDS011;58633;49.470;11.004;2023-05-20T10:47:32;7.28;;;6.22;;
6823;SDS011;58633;49.470;11.004;2023-05-20T10:49:58;7.15;;;6.45;;
6823;SDS011;58633;49.470;11.004;2023-05-20T10:52:26;6.45;;;5.75;;
6823;SDS011;58633;49.470;11.004;2023-05-20T10:57:22;6.43;;;5.75;;
6823;SDS011;58633;49.470;11.004;2023-05-20T10:59:48;5.50;;;5.00;;
6823;SDS011;58633;49.470;11.004;2023-05-20T11:02:15;5.60;;;5.10;;
6823;SDS011;58633;49.470;11.004;2023-05-20T11:04:41;6.05;;;5.32;;
6823;SDS011;58633;49.470;11.004;2023-05-20T11:07:08;7.45;;;5.55;;
6823;SDS011;58633;49.470;11.004;2023-05-20T11:09:33;5.95;;;5.35;;
6823;SDS011;58633;49.470;11.004;2023-05-20T11:11:59;7.57;;;6.88;;
6823;SDS011;58633;49.470;11.004;2023-05-20T11:14:26;7.70;;;6.20;;
6823;SDS011;58633;49.470;11.004;2023-05-20T11:16:55;7.40;;;5.90;;
6823;SDS011;58633;49.470;11.004;2023-05-20T11:19:24;6.65;;;5.72;;
6823;SDS011;58633;49.470;11.004;2023-05-20T11:21:50;6.53;;;5.93;;
6823;SDS011;58633;49.470;11.004;2023-05-20T11:24:26;9.15;;;5.80;;
6823;SDS011;58633;49.470;11.004;2023-05-20T11:26:53;6.18;;;5.57;;
6823;SDS011;58633;49.470;11.004;2023-05-20T11:29:19;6.13;;;5.53;;
6823;SDS011;58633;49.470;11.004;2023-05-20T11:31:46;7.40;;;5.47;;
6823;SDS011;58633;49.470;11.004;2023-05-20T11:34:13;6.38;;;5.78;;
6823;SDS011;58633;49.470;11.004;2023-05-20T11:36:42;6.40;;;5.80;;
6823;SDS011;58633;49.470;11.004;2023-05-20T11:39:11;8.65;;;6.75;;
6823;SDS011;58633;49.470;11.004;2023-05-20T11:41:38;6.30;;;5.55;;
6823;SDS011;58633;49.470;11.004;2023-05-20T11:44:08;6.38;;;5.53;;
6823;SDS011;58633;49.470;11.004;2023-05-20T11:46:39;6.25;;;5.43;;
6823;SDS011;58633;49.470;11.004;2023-05-20T11:49:06;6.82;;;6.10;;
6823;SDS011;58633;49.470;11.004;2023-05-20T11:51:32;8.18;;;6.13;;
6823;SDS011;58633;49.470;11.004;2023-05-20T11:53:59;6.95;;;6.20;;
6823;SDS011;58633;49.470;11.004;2023-05-20T11:56:28;6.68;;;6.07;;
6823;SDS011;58633;49.470;11.004;2023-05-20T11:58:58;9.60;;;5.93;;
6823;SDS011;58633;49.470;11.004;2023-05-20T12:01:24;6.82;;;6.10;;
6823;SDS011;58633;49.470;11.004;2023-05-20T12:03:51;7.05;;;6.20;;
6823;SDS011;58633;49.470;11.004;2023-05-20T12:06:17;6.93;;;6.22;;
6823;SDS011;58633;49.470;11.004;2023-05-20T12:08:43;7.30;;;6.35;;
6823;SDS011;58633;49.470;11.004;2023-05-20T12:11:09;7.97;;;6.50;;
6823;SDS011;58633;49.470;11.004;2023-05-20T12:13:35;8.13;;;7.15;;
6823;SDS011;58633;49.470;11.004;2023-05-20T12:16:01;7.70;;;6.47;;
6823;SDS011;58633;49.470;11.004;2023-05-20T12:18:29;6.65;;;6.05;;
6823;SDS011;58633;49.470;11.004;2023-05-20T12:20:55;7.22;;;6.57;;
6823;SDS011;58633;49.470;11.004;2023-05-20T12:23:21;7.95;;;6.53;;
6823;SDS011;58633;49.470;11.004;2023-05-20T12:25:46;6.50;;;5.90;;
6823;SDS011;58633;49.470;11.004;2023-05-20T12:28:13;9.15;;;6.47;;
6823;SDS011;58633;49.470;11.004;2023-05-20T12:30:41;7.30;;;6.53;;
6823;SDS011;58633;49.470;11.004;2023-05-20T12:33:06;8.15;;;6.65;;
6823;SDS011;58633;49.470;11.004;2023-05-20T12:38:02;6.97;;;6.13;;
6823;SDS011;58633;49.470;11.004;2023-05-20T12:40:28;7.80;;;6.35;;
6823;SDS011;58633;49.470;11.004;2023-05-20T12:42:54;6.97;;;6.25;;
6823;SDS011;58633;49.470;11.004;2023-05-20T12:45:20;7.00;;;6.20;;
6823;SDS011;58633;49.470;11.004;2023-05-20T12:47:45;8.77;;;6.65;;
6823;SDS011;58633;49.470;11.004;2023-05-20T12:50:12;8.05;;;7.35;;
6823;SDS011;58633;49.470;11.004;2023-05-20T12:52:37;7.38;;;6.68;;
6823;SDS011;58633;49.470;11.004;2023-05-20T12:55:03;7.45;;;6.68;;
6823;SDS011;58633;49.470;11.004;2023-05-20T12:57:37;7.00;;;6.28;;
6823;SDS011;58633;49.470;11.004;2023-05-20T13:00:09;8.18;;;6.38;;
6823;SDS011;58633;49.470;11.004;2023-05-20T13:02:36;8.30;;;7.07;;
6823;SDS011;58633;49.470;11.004;2023-05-20T13:05:02;6.97;;;6.30;;
6823;SDS011;58633;49.470;11.004;2023-05-20T13:07:29;8.50;;;6.38;;
6823;SDS011;58633;49.470;11.004;2023-05-20T13:09:55;6.88;;;6.28;;
6823;SDS011;58633;49.470;11.004;2023-05-20T13:12:21;7.07;;;6.38;;
6823;SDS011;58633;49.470;11.004;2023-05-20T13:14:46;7.13;;;6.32;;
6823;SDS011;58633;49.470;11.004;2023-05-20T13:17:12;7.47;;;6.07;;
6823;SDS011;58633;49.470;11.004;2023-05-20T13:19:38;7.38;;;6.63;;
6823;SDS011;58633;49.470;11.004;2023-05-20T13:22:04;6.63;;;5.90;;
6823;SDS011;58633;49.470;11.004;2023-05-20T13:24:33;6.50;;;5.78;;
6823;SDS011;58633;49.470;11.004;2023-05-20T13:26:59;6.75;;;6.15;;
6823;SDS011;58633;49.470;11.004;2023-05-20T13:29:25;7.43;;;6.28;;
6823;SDS011;58633;49.470;11.004;2023-05-20T13:31:51;6.90;;;6.20;;
6823;SDS011;58633;49.470;11.004;2023-05-20T13:34:17;7.13;;;6.00;;
6823;SDS011;58633;49.470;11.004;2023-05-20T13:36:42;6.60;;;6.00;;
6823;SDS011;58633;49.470;11.004;2023-05-20T13:39:09;6.47;;;5.88;;
6823;SDS011;58633;49.470;11.004;2023-05-20T13:41:35;7.15;;;6.10;;
6823;SDS011;58633;49.470;11.004;2023-05-20T13:44:01;6.95;;;5.78;;
6823;SDS011;58633;49.470;11.004;2023-05-20T13:46:28;7.43;;;5.82;;
6823;SDS011;58633;49.470;11.004;2023-05-20T13:48:54;6.57;;;6.07;;
6823;SDS011;58633;49.470;11.004;2023-05-20T13:51:20;6.72;;;6.13;;
6823;SDS011;58633;49.470;11.004;2023-05-20T13:53:45;6.75;;;6.03;;
6823;SDS011;58633;49.470;11.004;2023-05-20T13:56:11;7.05;;;6.28;;
6823;SDS011;58633;49.470;11.004;2023-05-20T13:58:36;6.20;;;5.70;;
6823;SDS011;58633;49.470;11.004;2023-05-20T14:01:02;6.68;;;6.07;;
6823;SDS011;58633;49.470;11.004;2023-05-20T14:03:29;6.57;;;5.95;;
6823;SDS011;58633;49.470;11.004;2023-05-20T14:05:55;6.38;;;5.68;;
6823;SDS011;58633;49.470;11.004;2023-05-20T14:08:21;6.43;;;5.82;;
6823;SDS011;58633;49.470;11.004;2023-05-20T14:10:47;10.40;;;6.93;;
6823;SDS011;58633;49.470;11.004;2023-05-20T14:13:13;6.05;;;5.45;;
6823;SDS011;58633;49.470;11.004;2023-05-20T14:15:38;7.22;;;5.97;;
6823;SDS011;58633;49.470;11.004;2023-05-20T14:18:04;8.88;;;6.18;;
6823;SDS011;58633;49.470;11.004;2023-05-20T14:20:29;7.43;;;6.30;;
6823;SDS011;58633;49.470;11.004;2023-05-20T14:22:55;9.85;;;6.57;;
6823;SDS011;58633;49.470;11.004;2023-05-20T14:25:21;6.90;;;6.20;;
6823;SDS011;58633;49.470;11.004;2023-05-20T14:27:46;7.47;;;6.72;;
6823;SDS011;58633;49.470;11.004;2023-05-20T14:30:13;6.25;;;5.65;;
6823;SDS011;58633;49.470;11.004;2023-05-20T14:32:38;6.68;;;6.07;;
6823;SDS011;58633;49.470;11.004;2023-05-20T14:35:04;6.72;;;6.13;;
6823;SDS011;58633;49.470;11.004;2023-05-20T14:37:30;7.60;;;6.90;;
6823;SDS011;58633;49.470;11.004;2023-05-20T14:39:56;7.05;;;6.00;;
6823;SDS011;58633;49.470;11.004;2023-05-20T14:42:21;6.85;;;5.93;;
6823;SDS011;58633;49.470;11.004;2023-05-20T14:44:47;6.78;;;6.03;;
6823;SDS011;58633;49.470;11.004;2023-05-20T14:47:13;7.10;;;6.40;;
6823;SDS011;58633;49.470;11.004;2023-05-20T14:49:45;8.40;;;6.10;;
6823;SDS011;58633;49.470;11.004;2023-05-20T14:52:13;6.47;;;5.78;;
6823;SDS011;58633;49.470;11.004;2023-05-20T14:54:39;6.68;;;5.90;;
6823;SDS011;58633;49.470;11.004;2023-05-20T14:57:05;7.03;;;6.32;;
6823;SDS011;58633;49.470;11.004;2023-05-20T14:59:31;6.28;;;5.75;;